sensor_id;sensor_type;location;lat;lon;timestamp;P1;durP1;ratioP1;P2;durP2;ratioP2
35150;SDS011;55720;51.972;4.624;2023-03-01T00:01:59;33.03;;;15.63;;
35150;SDS011;55720;51.972;4.624;2023-03-01T00:04:24;33.75;;;16.30;;
35150;SDS011;55720;51.972;4.624;2023-03-01T00:06:50;33.97;;;16.58;;
35150;SDS011;55720;51.972;4.624;2023-03-01T00:09:16;32.75;;;15.77;;
35150;SDS011;55720;51.972;4.624;2023-03-01T00:11:42;32.13;;;16.48;;
35150;SDS011;55720;51.972;4.624;2023-03-01T00:14:08;34.35;;;16.42;;
35150;SDS011;55720;51.972;4.624;2023-03-01T00:16:37;29.88;;;14.73;;
35150;SDS011;55720;51.972;4.624;2023-03-01T00:19:04;33.00;;;17.05;;
35150;SDS011;55720;51.972;4.624;2023-03-01T00:21:31;32.42;;;16.17;;
35150;SDS011;55720;51.972;4.624;2023-03-01T00:23:56;27.95;;;15.40;;
35150;SDS011;55720;51.972;4.624;2023-03-01T00:26:23;31.95;;;16.85;;
35150;SDS011;55720;51.972;4.624;2023-03-01T00:28:50;33.95;;;16.30;;
35150;SDS011;55720;51.972;4.624;2023-03-01T00:31:17;37.33;;;16.95;;
35150;SDS011;55720;51.972;4.624;2023-03-01T00:33:44;30.60;;;15.68;;
35150;SDS011;55720;51.972;4.624;2023-03-01T00:36:12;37.53;;;17.17;;
35150;SDS011;55720;51.972;4.624;2023-03-01T00:38:40;33.63;;;15.43;;
35150;SDS011;55720;51.972;4.624;2023-03-01T00:41:08;36.38;;;17.30;;
35150;SDS011;55720;51.972;4.624;2023-03-01T00:43:35;33.42;;;16.23;;
35150;SDS011;55720;51.972;4.624;2023-03-01T00:46:08;35.28;;;16.80;;
35150;SDS011;55720;51.972;4.624;2023-03-01T00:48:35;33.10;;;16.73;;
35150;SDS011;55720;51.972;4.624;2023-03-01T00:51:07;38.63;;;18.65;;
35150;SDS011;55720;51.972;4.624;2023-03-01T00:53:35;37.72;;;17.15;;
35150;SDS011;55720;51.972;4.624;2023-03-01T00:56:01;39.67;;;18.30;;
35150;SDS011;55720;51.972;4.624;2023-03-01T00:58:27;37.33;;;17.52;;
35150;SDS011;55720;51.972;4.624;2023-03-01T01:00:53;37.67;;;17.50;;
35150;SDS011;55720;51.972;4.624;2023-03-01T01:03:19;36.00;;;17.65;;
35150;SDS011;55720;51.972;4.624;2023-03-01T01:05:44;39.28;;;17.90;;
35150;SDS011;55720;51.972;4.624;2023-03-01T01:08:10;36.28;;;18.05;;
35150;SDS011;55720;51.972;4.624;2023-03-01T01:10:36;40.28;;;18.05;;
35150;SDS011;55720;51.972;4.624;2023-03-01T01:13:02;41.92;;;19.55;;
35150;SDS011;55720;51.972;4.624;2023-03-01T01:15:27;42.38;;;19.65;;
35150;SDS011;55720;51.972;4.624;2023-03-01T01:17:53;38.80;;;18.45;;
35150;SDS011;55720;51.972;4.624;2023-03-01T01:20:18;45.25;;;18.60;;
35150;SDS011;55720;51.972;4.624;2023-03-01T01:22:43;44.17;;;20.83;;
35150;SDS011;55720;51.972;4.624;2023-03-01T01:25:09;41.38;;;18.73;;
35150;SDS011;55720;51.972;4.624;2023-03-01T01:27:35;43.20;;;19.80;;
35150;SDS011;55720;51.972;4.624;2023-03-01T01:30:01;39.97;;;19.38;;
35150;SDS011;55720;51.972;4.624;2023-03-01T01:32:26;41.72;;;20.30;;
35150;SDS011;55720;51.972;4.624;2023-03-01T01:34:51;40.55;;;19.05;;
35150;SDS011;55720;51.972;4.624;2023-03-01T01:37:17;43.22;;;20.02;;
35150;SDS011;55720;51.972;4.624;2023-03-01T01:39:42;49.95;;;22.63;;
35150;SDS011;55720;51.972;4.624;2023-03-01T01:42:13;48.25;;;21.92;;
35150;SDS011;55720;51.972;4.624;2023-03-01T01:44:45;47.35;;;22.73;;
35150;SDS011;55720;51.972;4.624;2023-03-01T01:47:13;47.00;;;21.00;;
35150;SDS011;55720;51.972;4.624;2023-03-01T01:52:17;47.05;;;22.50;;
35150;SDS011;55720;51.972;4.624;2023-03-01T01:55:05;56.22;;;24.13;;
35150;SDS011;55720;51.972;4.624;2023-03-01T02:00:15;55.95;;;24.30;;
35150;SDS011;55720;51.972;4.624;2023-03-01T02:02:43;61.15;;;26.02;;
35150;SDS011;55720;51.972;4.624;2023-03-01T02:07:42;59.13;;;25.55;;
35150;SDS011;55720;51.972;4.624;2023-03-01T02:10:09;59.03;;;25.17;;
35150;SDS011;55720;51.972;4.624;2023-03-01T02:12:34;61.40;;;25.35;;
35150;SDS011;55720;51.972;4.624;2023-03-01T02:15:01;60.25;;;25.10;;
35150;SDS011;55720;51.972;4.624;2023-03-01T02:17:27;62.45;;;25.98;;
35150;SDS011;55720;51.972;4.624;2023-03-01T02:23:00;63.75;;;25.48;;
35150;SDS011;55720;51.972;4.624;2023-03-01T02:25:47;65.13;;;27.00;;
35150;SDS011;55720;51.972;4.624;2023-03-01T02:28:26;61.53;;;26.02;;
35150;SDS011;55720;51.972;4.624;2023-03-01T02:30:51;62.40;;;25.30;;
35150;SDS011;55720;51.972;4.624;2023-03-01T02:33:37;60.90;;;24.90;;
35150;SDS011;55720;51.972;4.624;2023-03-01T02:36:06;57.75;;;24.58;;
35150;SDS011;55720;51.972;4.624;2023-03-01T02:38:34;61.58;;;25.45;;
35150;SDS011;55720;51.972;4.624;2023-03-01T02:40:59;57.45;;;24.48;;
35150;SDS011;55720;51.972;4.624;2023-03-01T02:43:27;58.47;;;24.75;;
35150;SDS011;55720;51.972;4.624;2023-03-01T02:45:59;60.20;;;24.43;;
35150;SDS011;55720;51.972;4.624;2023-03-01T02:48:39;57.50;;;23.58;;
35150;SDS011;55720;51.972;4.624;2023-03-01T02:56:41;57.83;;;23.70;;
35150;SDS011;55720;51.972;4.624;2023-03-01T02:59:09;61.10;;;23.95;;
35150;SDS011;55720;51.972;4.624;2023-03-01T03:01:35;59.75;;;24.42;;
35150;SDS011;55720;51.972;4.624;2023-03-01T03:04:04;56.47;;;23.77;;
35150;SDS011;55720;51.972;4.624;2023-03-01T03:06:35;62.38;;;24.05;;
35150;SDS011;55720;51.972;4.624;2023-03-01T03:09:00;59.33;;;23.25;;
35150;SDS011;55720;51.972;4.624;2023-03-01T03:11:27;53.85;;;24.33;;
35150;SDS011;55720;51.972;4.624;2023-03-01T03:13:52;62.17;;;25.52;;
35150;SDS011;55720;51.972;4.624;2023-03-01T03:16:18;57.38;;;22.80;;
35150;SDS011;55720;51.972;4.624;2023-03-01T03:18:44;55.13;;;23.90;;
35150;SDS011;55720;51.972;4.624;2023-03-01T03:21:11;54.28;;;23.67;;
35150;SDS011;55720;51.972;4.624;2023-03-01T03:23:37;53.63;;;22.70;;
35150;SDS011;55720;51.972;4.624;2023-03-01T03:26:03;56.65;;;23.65;;
35150;SDS011;55720;51.972;4.624;2023-03-01T03:28:30;62.33;;;22.80;;
35150;SDS011;55720;51.972;4.624;2023-03-01T03:30:56;55.38;;;23.85;;
35150;SDS011;55720;51.972;4.624;2023-03-01T03:33:23;54.72;;;23.50;;
35150;SDS011;55720;51.972;4.624;2023-03-01T03:35:49;64.68;;;24.27;;
35150;SDS011;55720;51.972;4.624;2023-03-01T03:38:16;59.90;;;23.77;;
35150;SDS011;55720;51.972;4.624;2023-03-01T03:40:48;57.80;;;25.52;;
35150;SDS011;55720;51.972;4.624;2023-03-01T03:43:16;64.55;;;24.75;;
35150;SDS011;55720;51.972;4.624;2023-03-01T03:45:46;62.97;;;24.30;;
35150;SDS011;55720;51.972;4.624;2023-03-01T03:48:12;63.97;;;25.60;;
35150;SDS011;55720;51.972;4.624;2023-03-01T03:50:39;60.70;;;25.20;;
35150;SDS011;55720;51.972;4.624;2023-03-01T03:53:06;54.65;;;23.83;;
35150;SDS011;55720;51.972;4.624;2023-03-01T03:55:34;42.83;;;16.70;;
35150;SDS011;55720;51.972;4.624;2023-03-01T03:58:00;55.08;;;23.35;;
35150;SDS011;55720;51.972;4.624;2023-03-01T04:00:32;60.97;;;24.30;;
35150;SDS011;55720;51.972;4.624;2023-03-01T04:03:01;60.85;;;23.92;;
35150;SDS011;55720;51.972;4.624;2023-03-01T04:05:28;63.70;;;25.58;;
35150;SDS011;55720;51.972;4.624;2023-03-01T04:07:54;60.75;;;24.35;;
35150;SDS011;55720;51.972;4.624;2023-03-01T04:10:30;64.55;;;25.48;;
35150;SDS011;55720;51.972;4.624;2023-03-01T04:12:57;60.00;;;24.48;;
35150;SDS011;55720;51.972;4.624;2023-03-01T04:15:23;54.92;;;23.65;;
35150;SDS011;55720;51.972;4.624;2023-03-01T04:17:50;58.97;;;24.15;;
35150;SDS011;55720;51.972;4.624;2023-03-01T04:20:20;62.35;;;25.88;;
35150;SDS011;55720;51.972;4.624;2023-03-01T04:22:56;63.20;;;26.88;;
35150;SDS011;55720;51.972;4.624;2023-03-01T04:25:42;68.78;;;26.55;;
35150;SDS011;55720;51.972;4.624;2023-03-01T04:28:39;114.20;;;27.48;;
35150;SDS011;55720;51.972;4.624;2023-03-01T04:31:12;179.55;;;30.10;;
35150;SDS011;55720;51.972;4.624;2023-03-01T04:33:54;105.55;;;28.95;;
35150;SDS011;55720;51.972;4.624;2023-03-01T04:36:21;144.93;;;30.53;;
35150;SDS011;55720;51.972;4.624;2023-03-01T04:38:49;184.10;;;31.88;;
35150;SDS011;55720;51.972;4.624;2023-03-01T04:41:16;161.80;;;32.55;;
35150;SDS011;55720;51.972;4.624;2023-03-01T04:43:44;89.45;;;28.42;;
35150;SDS011;55720;51.972;4.624;2023-03-01T04:46:11;97.00;;;28.52;;
35150;SDS011;55720;51.972;4.624;2023-03-01T04:48:39;80.80;;;26.75;;
35150;SDS011;55720;51.972;4.624;2023-03-01T04:51:05;78.88;;;28.23;;
35150;SDS011;55720;51.972;4.624;2023-03-01T04:53:31;67.65;;;26.35;;
35150;SDS011;55720;51.972;4.624;2023-03-01T04:55:57;74.13;;;28.15;;
35150;SDS011;55720;51.972;4.624;2023-03-01T04:58:24;88.72;;;29.10;;
35150;SDS011;55720;51.972;4.624;2023-03-01T05:00:50;75.10;;;28.10;;
35150;SDS011;55720;51.972;4.624;2023-03-01T05:03:16;69.40;;;28.35;;
35150;SDS011;55720;51.972;4.624;2023-03-01T05:05:43;71.60;;;28.98;;
35150;SDS011;55720;51.972;4.624;2023-03-01T05:08:10;65.88;;;26.10;;
35150;SDS011;55720;51.972;4.624;2023-03-01T05:10:46;78.32;;;27.40;;
35150;SDS011;55720;51.972;4.624;2023-03-01T05:13:14;90.53;;;27.90;;
35150;SDS011;55720;51.972;4.624;2023-03-01T05:15:46;70.70;;;28.45;;
35150;SDS011;55720;51.972;4.624;2023-03-01T05:18:22;82.05;;;26.83;;
35150;SDS011;55720;51.972;4.624;2023-03-01T05:20:50;61.80;;;24.58;;
35150;SDS011;55720;51.972;4.624;2023-03-01T05:23:21;67.03;;;26.80;;
35150;SDS011;55720;51.972;4.624;2023-03-01T05:25:48;60.05;;;24.50;;
35150;SDS011;55720;51.972;4.624;2023-03-01T05:28:14;61.55;;;25.45;;
35150;SDS011;55720;51.972;4.624;2023-03-01T05:30:40;59.88;;;24.95;;
35150;SDS011;55720;51.972;4.624;2023-03-01T05:33:06;62.05;;;25.70;;
35150;SDS011;55720;51.972;4.624;2023-03-01T05:35:38;65.05;;;25.95;;
35150;SDS011;55720;51.972;4.624;2023-03-01T05:38:05;58.85;;;25.70;;
35150;SDS011;55720;51.972;4.624;2023-03-01T05:40:32;58.85;;;24.88;;
35150;SDS011;55720;51.972;4.624;2023-03-01T05:42:58;60.90;;;23.88;;
35150;SDS011;55720;51.972;4.624;2023-03-01T05:45:24;62.15;;;24.73;;
35150;SDS011;55720;51.972;4.624;2023-03-01T05:47:51;56.67;;;24.83;;
35150;SDS011;55720;51.972;4.624;2023-03-01T05:50:21;59.00;;;25.08;;
35150;SDS011;55720;51.972;4.624;2023-03-01T05:52:52;54.28;;;24.50;;
35150;SDS011;55720;51.972;4.624;2023-03-01T05:55:22;55.53;;;24.30;;
35150;SDS011;55720;51.972;4.624;2023-03-01T05:57:48;51.78;;;23.42;;
35150;SDS011;55720;51.972;4.624;2023-03-01T06:00:15;51.00;;;23.15;;
35150;SDS011;55720;51.972;4.624;2023-03-01T06:02:42;50.80;;;23.13;;
35150;SDS011;55720;51.972;4.624;2023-03-01T06:05:07;48.55;;;23.23;;
35150;SDS011;55720;51.972;4.624;2023-03-01T06:07:35;48.70;;;22.27;;
35150;SDS011;55720;51.972;4.624;2023-03-01T06:10:01;52.30;;;23.80;;
35150;SDS011;55720;51.972;4.624;2023-03-01T06:12:29;48.42;;;22.55;;
35150;SDS011;55720;51.972;4.624;2023-03-01T06:14:59;48.85;;;22.73;;
35150;SDS011;55720;51.972;4.624;2023-03-01T06:17:24;49.15;;;22.63;;
35150;SDS011;55720;51.972;4.624;2023-03-01T06:19:50;52.33;;;22.52;;
35150;SDS011;55720;51.972;4.624;2023-03-01T06:22:15;46.75;;;21.98;;
35150;SDS011;55720;51.972;4.624;2023-03-01T06:24:41;46.55;;;21.20;;
35150;SDS011;55720;51.972;4.624;2023-03-01T06:27:06;49.63;;;23.08;;
35150;SDS011;55720;51.972;4.624;2023-03-01T06:29:32;50.20;;;22.98;;
35150;SDS011;55720;51.972;4.624;2023-03-01T06:31:57;57.00;;;24.00;;
35150;SDS011;55720;51.972;4.624;2023-03-01T06:34:23;51.28;;;22.70;;
35150;SDS011;55720;51.972;4.624;2023-03-01T06:36:48;50.65;;;22.85;;
35150;SDS011;55720;51.972;4.624;2023-03-01T06:39:13;50.88;;;21.38;;
35150;SDS011;55720;51.972;4.624;2023-03-01T06:41:39;52.08;;;22.58;;
35150;SDS011;55720;51.972;4.624;2023-03-01T06:44:04;58.40;;;23.48;;
35150;SDS011;55720;51.972;4.624;2023-03-01T06:46:30;47.20;;;20.90;;
35150;SDS011;55720;51.972;4.624;2023-03-01T06:48:58;49.47;;;21.30;;
35150;SDS011;55720;51.972;4.624;2023-03-01T06:51:23;48.33;;;21.85;;
35150;SDS011;55720;51.972;4.624;2023-03-01T06:53:50;54.15;;;22.77;;
35150;SDS011;55720;51.972;4.624;2023-03-01T06:56:15;52.78;;;22.02;;
35150;SDS011;55720;51.972;4.624;2023-03-01T06:58:40;52.78;;;22.15;;
35150;SDS011;55720;51.972;4.624;2023-03-01T07:01:06;56.00;;;22.98;;
35150;SDS011;55720;51.972;4.624;2023-03-01T07:03:33;50.95;;;21.52;;
35150;SDS011;55720;51.972;4.624;2023-03-01T07:05:58;51.90;;;22.25;;
35150;SDS011;55720;51.972;4.624;2023-03-01T07:08:24;51.80;;;21.63;;
35150;SDS011;55720;51.972;4.624;2023-03-01T07:10:54;49.92;;;22.30;;
35150;SDS011;55720;51.972;4.624;2023-03-01T07:13:23;51.35;;;22.25;;
35150;SDS011;55720;51.972;4.624;2023-03-01T07:15:48;47.75;;;21.35;;
35150;SDS011;55720;51.972;4.624;2023-03-01T07:18:14;54.22;;;23.83;;
35150;SDS011;55720;51.972;4.624;2023-03-01T07:20:39;54.05;;;23.02;;
35150;SDS011;55720;51.972;4.624;2023-03-01T07:23:05;59.70;;;23.67;;
35150;SDS011;55720;51.972;4.624;2023-03-01T07:25:31;55.22;;;23.92;;
35150;SDS011;55720;51.972;4.624;2023-03-01T07:27:57;56.92;;;23.98;;
35150;SDS011;55720;51.972;4.624;2023-03-01T07:30:23;55.90;;;24.02;;
35150;SDS011;55720;51.972;4.624;2023-03-01T07:32:50;59.22;;;24.30;;
35150;SDS011;55720;51.972;4.624;2023-03-01T07:35:16;49.97;;;23.33;;
35150;SDS011;55720;51.972;4.624;2023-03-01T07:37:42;52.65;;;23.75;;
35150;SDS011;55720;51.972;4.624;2023-03-01T07:40:07;54.17;;;24.77;;
35150;SDS011;55720;51.972;4.624;2023-03-01T07:42:34;61.83;;;24.80;;
35150;SDS011;55720;51.972;4.624;2023-03-01T07:44:59;64.80;;;26.15;;
35150;SDS011;55720;51.972;4.624;2023-03-01T07:47:25;61.10;;;25.25;;
35150;SDS011;55720;51.972;4.624;2023-03-01T07:49:50;65.70;;;26.63;;
35150;SDS011;55720;51.972;4.624;2023-03-01T07:52:15;66.72;;;27.75;;
35150;SDS011;55720;51.972;4.624;2023-03-01T07:54:42;88.50;;;32.35;;
35150;SDS011;55720;51.972;4.624;2023-03-01T07:57:09;99.03;;;36.63;;
35150;SDS011;55720;51.972;4.624;2023-03-01T07:59:35;92.93;;;35.55;;
35150;SDS011;55720;51.972;4.624;2023-03-01T08:02:00;83.90;;;35.45;;
35150;SDS011;55720;51.972;4.624;2023-03-01T08:04:25;77.03;;;33.53;;
35150;SDS011;55720;51.972;4.624;2023-03-01T08:06:51;70.03;;;31.73;;
35150;SDS011;55720;51.972;4.624;2023-03-01T08:09:17;64.05;;;30.23;;
35150;SDS011;55720;51.972;4.624;2023-03-01T08:11:43;56.92;;;29.50;;
35150;SDS011;55720;51.972;4.624;2023-03-01T08:14:08;40.25;;;22.63;;
35150;SDS011;55720;51.972;4.624;2023-03-01T08:16:35;33.42;;;19.23;;
35150;SDS011;55720;51.972;4.624;2023-03-01T08:19:07;29.35;;;18.30;;
35150;SDS011;55720;51.972;4.624;2023-03-01T08:21:35;24.85;;;15.57;;
35150;SDS011;55720;51.972;4.624;2023-03-01T08:24:01;22.83;;;14.07;;
35150;SDS011;55720;51.972;4.624;2023-03-01T08:26:27;21.00;;;12.30;;
35150;SDS011;55720;51.972;4.624;2023-03-01T08:28:54;18.25;;;11.82;;
35150;SDS011;55720;51.972;4.624;2023-03-01T08:31:21;16.58;;;10.23;;
35150;SDS011;55720;51.972;4.624;2023-03-01T08:33:50;14.15;;;9.93;;
35150;SDS011;55720;51.972;4.624;2023-03-01T08:36:20;16.27;;;10.00;;
35150;SDS011;55720;51.972;4.624;2023-03-01T08:38:47;17.38;;;9.35;;
35150;SDS011;55720;51.972;4.624;2023-03-01T08:41:12;15.40;;;9.15;;
35150;SDS011;55720;51.972;4.624;2023-03-01T08:43:39;13.65;;;9.57;;
35150;SDS011;55720;51.972;4.624;2023-03-01T08:46:04;12.80;;;8.38;;
35150;SDS011;55720;51.972;4.624;2023-03-01T08:48:30;13.85;;;7.55;;
35150;SDS011;55720;51.972;4.624;2023-03-01T08:50:55;11.02;;;8.23;;
35150;SDS011;55720;51.972;4.624;2023-03-01T08:53:21;10.10;;;7.10;;
35150;SDS011;55720;51.972;4.624;2023-03-01T08:55:46;6.25;;;5.32;;
35150;SDS011;55720;51.972;4.624;2023-03-01T08:58:12;8.68;;;6.10;;
35150;SDS011;55720;51.972;4.624;2023-03-01T09:00:37;6.25;;;5.15;;
35150;SDS011;55720;51.972;4.624;2023-03-01T09:03:03;6.85;;;5.57;;
35150;SDS011;55720;51.972;4.624;2023-03-01T09:05:31;7.65;;;5.57;;
35150;SDS011;55720;51.972;4.624;2023-03-01T09:07:57;10.07;;;6.18;;
35150;SDS011;55720;51.972;4.624;2023-03-01T09:10:23;9.88;;;6.07;;
35150;SDS011;55720;51.972;4.624;2023-03-01T09:12:48;6.30;;;5.28;;
35150;SDS011;55720;51.972;4.624;2023-03-01T09:15:13;9.23;;;6.50;;
35150;SDS011;55720;51.972;4.624;2023-03-01T09:17:39;7.45;;;5.80;;
35150;SDS011;55720;51.972;4.624;2023-03-01T09:20:05;8.13;;;5.93;;
35150;SDS011;55720;51.972;4.624;2023-03-01T09:22:32;7.70;;;5.38;;
35150;SDS011;55720;51.972;4.624;2023-03-01T09:24:59;9.25;;;5.43;;
35150;SDS011;55720;51.972;4.624;2023-03-01T09:27:24;8.18;;;6.18;;
35150;SDS011;55720;51.972;4.624;2023-03-01T09:29:50;9.50;;;6.22;;
35150;SDS011;55720;51.972;4.624;2023-03-01T09:32:15;7.03;;;5.22;;
35150;SDS011;55720;51.972;4.624;2023-03-01T09:34:41;6.68;;;5.38;;
35150;SDS011;55720;51.972;4.624;2023-03-01T09:37:26;7.75;;;5.55;;
35150;SDS011;55720;51.972;4.624;2023-03-01T09:39:52;9.57;;;4.97;;
35150;SDS011;55720;51.972;4.624;2023-03-01T09:42:17;6.30;;;4.80;;
35150;SDS011;55720;51.972;4.624;2023-03-01T09:44:45;8.15;;;5.05;;
35150;SDS011;55720;51.972;4.624;2023-03-01T09:49:42;4.95;;;4.45;;
35150;SDS011;55720;51.972;4.624;2023-03-01T09:55:00;6.78;;;4.10;;
35150;SDS011;55720;51.972;4.624;2023-03-01T09:57:32;6.47;;;4.57;;
35150;SDS011;55720;51.972;4.624;2023-03-01T10:03:06;7.07;;;4.07;;
35150;SDS011;55720;51.972;4.624;2023-03-01T10:06:22;10.30;;;4.57;;
35150;SDS011;55720;51.972;4.624;2023-03-01T10:11:28;5.13;;;4.63;;
35150;SDS011;55720;51.972;4.624;2023-03-01T10:14:19;5.80;;;4.53;;
35150;SDS011;55720;51.972;4.624;2023-03-01T10:19:23;8.50;;;5.72;;
35150;SDS011;55720;51.972;4.624;2023-03-01T10:24:38;9.95;;;5.80;;
35150;SDS011;55720;51.972;4.624;2023-03-01T10:27:05;10.48;;;5.78;;
35150;SDS011;55720;51.972;4.624;2023-03-01T10:29:39;10.55;;;6.97;;
35150;SDS011;55720;51.972;4.624;2023-03-01T10:32:13;9.65;;;6.80;;
35150;SDS011;55720;51.972;4.624;2023-03-01T10:34:39;7.88;;;6.10;;
35150;SDS011;55720;51.972;4.624;2023-03-01T10:37:12;10.88;;;6.88;;
35150;SDS011;55720;51.972;4.624;2023-03-01T10:42:46;11.52;;;6.90;;
35150;SDS011;55720;51.972;4.624;2023-03-01T10:45:34;8.10;;;5.80;;
35150;SDS011;55720;51.972;4.624;2023-03-01T10:48:17;8.82;;;6.05;;
35150;SDS011;55720;51.972;4.624;2023-03-01T10:50:50;8.70;;;5.47;;
35150;SDS011;55720;51.972;4.624;2023-03-01T10:56:16;7.45;;;6.00;;
35150;SDS011;55720;51.972;4.624;2023-03-01T10:58:58;8.73;;;6.00;;
35150;SDS011;55720;51.972;4.624;2023-03-01T11:01:26;9.88;;;6.43;;
35150;SDS011;55720;51.972;4.624;2023-03-01T11:06:32;10.98;;;6.30;;
35150;SDS011;55720;51.972;4.624;2023-03-01T11:09:01;11.65;;;6.63;;
35150;SDS011;55720;51.972;4.624;2023-03-01T11:11:45;8.77;;;5.50;;
35150;SDS011;55720;51.972;4.624;2023-03-01T11:14:45;8.75;;;6.47;;
35150;SDS011;55720;51.972;4.624;2023-03-01T11:20:23;11.82;;;6.97;;
35150;SDS011;55720;51.972;4.624;2023-03-01T11:23:18;9.13;;;6.10;;
35150;SDS011;55720;51.972;4.624;2023-03-01T11:25:48;7.53;;;5.90;;
35150;SDS011;55720;51.972;4.624;2023-03-01T11:28:19;7.20;;;5.68;;
35150;SDS011;55720;51.972;4.624;2023-03-01T11:30:58;9.00;;;5.55;;
35150;SDS011;55720;51.972;4.624;2023-03-01T11:36:26;9.00;;;5.97;;
35150;SDS011;55720;51.972;4.624;2023-03-01T11:39:03;9.35;;;5.68;;
35150;SDS011;55720;51.972;4.624;2023-03-01T11:41:40;6.65;;;5.38;;
35150;SDS011;55720;51.972;4.624;2023-03-01T11:44:17;8.65;;;5.35;;
35150;SDS011;55720;51.972;4.624;2023-03-01T11:46:49;7.68;;;4.93;;
35150;SDS011;55720;51.972;4.624;2023-03-01T11:52:01;7.30;;;4.60;;
35150;SDS011;55720;51.972;4.624;2023-03-01T12:00:02;6.70;;;4.47;;
35150;SDS011;55720;51.972;4.624;2023-03-01T12:08:17;4.95;;;4.45;;
35150;SDS011;55720;51.972;4.624;2023-03-01T12:16:36;5.95;;;4.40;;
35150;SDS011;55720;51.972;4.624;2023-03-01T12:35:58;5.55;;;4.38;;
35150;SDS011;55720;51.972;4.624;2023-03-01T12:38:37;4.60;;;4.20;;
35150;SDS011;55720;51.972;4.624;2023-03-01T12:47:04;5.00;;;4.40;;
35150;SDS011;55720;51.972;4.624;2023-03-01T12:49:45;5.00;;;4.38;;
35150;SDS011;55720;51.972;4.624;2023-03-01T12:52:19;6.55;;;4.50;;
35150;SDS011;55720;51.972;4.624;2023-03-01T12:54:53;5.35;;;3.85;;
35150;SDS011;55720;51.972;4.624;2023-03-01T13:11:19;8.00;;;4.13;;
35150;SDS011;55720;51.972;4.624;2023-03-01T13:13:46;5.72;;;4.25;;
35150;SDS011;55720;51.972;4.624;2023-03-01T13:21:40;6.05;;;4.13;;
35150;SDS011;55720;51.972;4.624;2023-03-01T13:24:29;5.20;;;4.03;;
35150;SDS011;55720;51.972;4.624;2023-03-01T13:32:35;5.40;;;4.35;;
35150;SDS011;55720;51.972;4.624;2023-03-01T13:37:40;5.13;;;3.95;;
35150;SDS011;55720;51.972;4.624;2023-03-01T13:42:52;4.60;;;4.15;;
35150;SDS011;55720;51.972;4.624;2023-03-01T13:45:32;5.80;;;4.50;;
35150;SDS011;55720;51.972;4.624;2023-03-01T13:48:08;4.68;;;3.95;;
35150;SDS011;55720;51.972;4.624;2023-03-01T13:50:38;4.75;;;3.95;;
35150;SDS011;55720;51.972;4.624;2023-03-01T13:53:14;5.97;;;4.38;;
35150;SDS011;55720;51.972;4.624;2023-03-01T13:56:29;6.75;;;4.38;;
35150;SDS011;55720;51.972;4.624;2023-03-01T13:58:46;5.15;;;4.47;;
35150;SDS011;55720;51.972;4.624;2023-03-01T14:01:35;7.70;;;3.97;;
35150;SDS011;55720;51.972;4.624;2023-03-01T14:04:02;4.88;;;4.47;;
35150;SDS011;55720;51.972;4.624;2023-03-01T14:06:29;4.68;;;3.95;;
35150;SDS011;55720;51.972;4.624;2023-03-01T14:20:20;4.68;;;3.95;;
35150;SDS011;55720;51.972;4.624;2023-03-01T14:22:48;7.32;;;4.35;;
35150;SDS011;55720;51.972;4.624;2023-03-01T14:27:45;4.90;;;4.35;;
35150;SDS011;55720;51.972;4.624;2023-03-01T14:30:24;6.00;;;4.50;;
35150;SDS011;55720;51.972;4.624;2023-03-01T14:32:57;5.90;;;3.70;;
35150;SDS011;55720;51.972;4.624;2023-03-01T14:35:31;5.78;;;4.10;;
35150;SDS011;55720;51.972;4.624;2023-03-01T14:37:59;6.43;;;4.45;;
35150;SDS011;55720;51.972;4.624;2023-03-01T14:43:01;5.30;;;3.83;;
35150;SDS011;55720;51.972;4.624;2023-03-01T14:45:33;7.55;;;3.95;;
35150;SDS011;55720;51.972;4.624;2023-03-01T14:47:59;7.38;;;3.70;;
35150;SDS011;55720;51.972;4.624;2023-03-01T14:50:28;4.40;;;3.80;;
35150;SDS011;55720;51.972;4.624;2023-03-01T14:52:59;6.15;;;4.20;;
35150;SDS011;55720;51.972;4.624;2023-03-01T14:55:33;5.28;;;4.20;;
35150;SDS011;55720;51.972;4.624;2023-03-01T14:58:03;5.45;;;4.05;;
35150;SDS011;55720;51.972;4.624;2023-03-01T15:00:38;4.70;;;3.67;;
35150;SDS011;55720;51.972;4.624;2023-03-01T15:03:10;6.28;;;4.80;;
35150;SDS011;55720;51.972;4.624;2023-03-01T15:05:38;4.45;;;3.83;;
35150;SDS011;55720;51.972;4.624;2023-03-01T15:08:06;4.35;;;3.95;;
35150;SDS011;55720;51.972;4.624;2023-03-01T15:10:34;3.50;;;3.20;;
35150;SDS011;55720;51.972;4.624;2023-03-01T15:13:14;6.10;;;4.22;;
35150;SDS011;55720;51.972;4.624;2023-03-01T15:15:47;4.43;;;3.53;;
35150;SDS011;55720;51.972;4.624;2023-03-01T15:20:40;5.25;;;4.22;;
35150;SDS011;55720;51.972;4.624;2023-03-01T15:23:05;11.30;;;4.18;;
35150;SDS011;55720;51.972;4.624;2023-03-01T15:25:43;4.55;;;4.15;;
35150;SDS011;55720;51.972;4.624;2023-03-01T15:28:17;5.40;;;4.07;;
35150;SDS011;55720;51.972;4.624;2023-03-01T15:30:45;5.20;;;3.22;;
35150;SDS011;55720;51.972;4.624;2023-03-01T15:33:19;6.47;;;3.67;;
35150;SDS011;55720;51.972;4.624;2023-03-01T15:35:48;6.78;;;3.90;;
35150;SDS011;55720;51.972;4.624;2023-03-01T15:41:01;3.80;;;3.50;;
35150;SDS011;55720;51.972;4.624;2023-03-01T15:43:38;5.25;;;4.13;;
35150;SDS011;55720;51.972;4.624;2023-03-01T15:46:16;5.18;;;3.72;;
35150;SDS011;55720;51.972;4.624;2023-03-01T15:48:44;4.45;;;3.83;;
35150;SDS011;55720;51.972;4.624;2023-03-01T15:51:12;5.20;;;4.03;;
35150;SDS011;55720;51.972;4.624;2023-03-01T15:53:39;4.72;;;3.40;;
35150;SDS011;55720;51.972;4.624;2023-03-01T15:56:05;4.40;;;3.33;;
35150;SDS011;55720;51.972;4.624;2023-03-01T15:58:32;5.13;;;3.45;;
35150;SDS011;55720;51.972;4.624;2023-03-01T16:00:58;4.82;;;3.60;;
35150;SDS011;55720;51.972;4.624;2023-03-01T16:03:24;4.65;;;3.60;;
35150;SDS011;55720;51.972;4.624;2023-03-01T16:05:49;5.57;;;3.70;;
35150;SDS011;55720;51.972;4.624;2023-03-01T16:08:16;4.82;;;3.92;;
35150;SDS011;55720;51.972;4.624;2023-03-01T16:10:42;4.93;;;3.88;;
35150;SDS011;55720;51.972;4.624;2023-03-01T16:13:08;4.95;;;3.58;;
35150;SDS011;55720;51.972;4.624;2023-03-01T16:15:35;4.88;;;3.22;;
35150;SDS011;55720;51.972;4.624;2023-03-01T16:18:00;6.72;;;3.50;;
35150;SDS011;55720;51.972;4.624;2023-03-01T16:20:26;4.13;;;3.63;;
35150;SDS011;55720;51.972;4.624;2023-03-01T16:22:53;4.68;;;3.58;;
35150;SDS011;55720;51.972;4.624;2023-03-01T16:25:19;5.55;;;3.70;;
35150;SDS011;55720;51.972;4.624;2023-03-01T16:27:46;5.97;;;3.30;;
35150;SDS011;55720;51.972;4.624;2023-03-01T16:30:14;6.13;;;3.70;;
35150;SDS011;55720;51.972;4.624;2023-03-01T16:32:43;4.45;;;3.38;;
35150;SDS011;55720;51.972;4.624;2023-03-01T16:35:10;6.28;;;3.60;;
35150;SDS011;55720;51.972;4.624;2023-03-01T16:37:36;5.47;;;3.78;;
35150;SDS011;55720;51.972;4.624;2023-03-01T16:40:03;5.93;;;3.63;;
35150;SDS011;55720;51.972;4.624;2023-03-01T16:42:33;6.07;;;3.85;;
35150;SDS011;55720;51.972;4.624;2023-03-01T16:45:00;4.18;;;3.58;;
35150;SDS011;55720;51.972;4.624;2023-03-01T16:47:26;8.32;;;4.07;;
35150;SDS011;55720;51.972;4.624;2023-03-01T16:49:52;6.03;;;4.32;;
35150;SDS011;55720;51.972;4.624;2023-03-01T16:52:18;6.57;;;4.13;;
35150;SDS011;55720;51.972;4.624;2023-03-01T16:54:44;4.65;;;4.03;;
35150;SDS011;55720;51.972;4.624;2023-03-01T16:57:09;5.40;;;3.55;;
35150;SDS011;55720;51.972;4.624;2023-03-01T16:59:35;7.43;;;4.00;;
35150;SDS011;55720;51.972;4.624;2023-03-01T17:02:02;5.93;;;4.10;;
35150;SDS011;55720;51.972;4.624;2023-03-01T17:04:27;5.15;;;4.10;;